createdAt,value
2023-01-18T00:01:05.462Z,0.11
2023-01-18T00:03:36.219Z,0.08
2023-01-18T00:06:08.951Z,0.08
2023-01-18T00:08:43.356Z,0.06
2023-01-18T00:11:17.029Z,0.14
2023-01-18T00:13:47.483Z,0.13
2023-01-18T00:16:20.278Z,0.14
2023-01-18T00:18:55.011Z,0.09
2023-01-18T00:21:26.927Z,0.18
2023-01-18T00:24:00.175Z,0.15
2023-01-18T00:26:30.195Z,0.18
2023-01-18T00:29:00.161Z,0.20
2023-01-18T00:31:30.813Z,0.27
2023-01-18T00:34:00.829Z,0.24
2023-01-18T00:36:32.052Z,0.20
2023-01-18T00:39:04.652Z,0.19
2023-01-18T00:41:34.670Z,0.21
2023-01-18T00:44:02.120Z,0.16
2023-01-18T00:46:32.378Z,0.08
2023-01-18T00:49:02.319Z,0.07
2023-01-18T00:51:32.329Z,0.11
2023-01-18T00:54:04.944Z,0.15
2023-01-18T00:56:34.970Z,0.13
2023-01-18T00:59:04.973Z,0.15
2023-01-18T01:01:35.121Z,0.07
2023-01-18T01:04:17.714Z,0.18
2023-01-18T01:06:47.906Z,0.16
2023-01-18T01:09:24.649Z,0.21
2023-01-18T01:12:08.996Z,0.26
2023-01-18T01:14:54.849Z,0.31
2023-01-18T01:17:37.675Z,0.24
2023-01-18T01:20:22.826Z,0.25
2023-01-18T01:23:05.539Z,0.18
2023-01-18T01:25:52.004Z,0.19
2023-01-18T01:28:22.045Z,0.16
2023-01-18T01:30:52.205Z,0.16
2023-01-18T01:33:22.251Z,0.19
2023-01-18T01:35:52.472Z,0.20
2023-01-18T01:38:22.472Z,0.16
2023-01-18T01:41:04.558Z,0.19
2023-01-18T01:43:49.758Z,0.22
2023-01-18T01:46:44.782Z,0.12
2023-01-18T01:49:22.127Z,0.08
2023-01-18T01:51:58.282Z,0.06
2023-01-18T01:54:34.723Z,0.04
2023-01-18T01:57:12.932Z,0.17
2023-01-18T01:59:51.774Z,0.22
2023-01-18T02:02:22.260Z,0.19
2023-01-18T02:04:54.321Z,0.11
2023-01-18T02:07:26.348Z,0.06
2023-01-18T02:09:58.073Z,0.07
2023-01-18T02:12:33.067Z,-0.01
2023-01-18T02:15:03.810Z,0.01
2023-01-18T02:17:54.076Z,0.06
2023-01-18T02:21:12.137Z,0.02
2023-01-18T02:24:40.612Z,0.04
2023-01-18T02:27:23.798Z,-0.08
2023-01-18T02:30:17.995Z,-0.13
2023-01-18T02:33:05.861Z,-0.24
2023-01-18T02:35:53.415Z,-0.26
2023-01-18T02:38:29.177Z,-0.15
2023-01-18T02:41:19.568Z,-0.18
2023-01-18T02:44:08.756Z,-0.14
2023-01-18T02:46:42.439Z,-0.13
2023-01-18T02:49:21.060Z,-0.27
2023-01-18T02:51:51.144Z,-0.25
2023-01-18T02:54:24.962Z,-0.26
2023-01-18T02:56:57.467Z,-0.31
2023-01-18T02:59:38.030Z,-0.18
2023-01-18T03:02:17.777Z,-0.16
2023-01-18T03:04:56.894Z,-0.26
2023-01-18T03:07:33.384Z,-0.20
2023-01-18T03:10:09.315Z,-0.32
2023-01-18T03:12:52.251Z,-0.27
2023-01-18T03:15:29.648Z,-0.25
2023-01-18T03:18:11.863Z,-0.34
2023-01-18T03:20:49.509Z,-0.38
2023-01-18T03:23:35.721Z,-0.39
2023-01-18T03:26:09.459Z,-0.36
2023-01-18T03:28:55.902Z,-0.31
2023-01-18T03:31:48.807Z,-0.20
2023-01-18T03:34:30.263Z,-0.29
2023-01-18T03:37:05.871Z,-0.42
2023-01-18T03:39:44.019Z,-0.42
2023-01-18T03:42:20.442Z,-0.47
2023-01-18T03:44:57.507Z,-0.49
2023-01-18T03:47:28.200Z,-0.47
2023-01-18T03:50:00.870Z,-0.36
2023-01-18T03:52:41.857Z,-0.40
2023-01-18T03:55:20.545Z,-0.39
2023-01-18T03:57:57.869Z,-0.41
2023-01-18T04:00:28.345Z,-0.39
2023-01-18T04:02:58.752Z,-0.40
2023-01-18T04:05:31.779Z,-0.36
2023-01-18T04:08:01.724Z,-0.36
2023-01-18T04:10:32.001Z,-0.27
2023-01-18T04:13:02.356Z,-0.16
2023-01-18T04:15:32.372Z,-0.26
2023-01-18T04:18:02.355Z,-0.37
2023-01-18T04:20:35.139Z,-0.24
2023-01-18T04:23:05.197Z,-0.24
2023-01-18T04:25:35.238Z,-0.44
2023-01-18T04:28:05.373Z,-0.42
2023-01-18T04:30:35.487Z,-0.42
2023-01-18T04:33:05.461Z,-0.45
2023-01-18T04:35:38.001Z,-0.49
2023-01-18T04:38:08.013Z,-0.48
2023-01-18T04:40:38.004Z,-0.43
2023-01-18T04:43:08.016Z,-0.50
2023-01-18T04:45:38.318Z,-0.44
2023-01-18T04:48:09.250Z,-0.51
2023-01-18T04:50:46.618Z,-0.48
2023-01-18T04:53:16.772Z,-0.38
2023-01-18T04:55:47.075Z,-0.35
2023-01-18T04:58:17.173Z,-0.42
2023-01-18T05:00:47.327Z,-0.39
2023-01-18T05:03:17.386Z,-0.42
2023-01-18T05:05:49.917Z,-0.49
2023-01-18T05:08:19.894Z,-0.32
2023-01-18T05:10:50.575Z,-0.40
2023-01-18T05:13:20.590Z,-0.45
2023-01-18T05:15:51.207Z,-0.41
2023-01-18T05:18:21.209Z,-0.55
2023-01-18T05:20:54.390Z,-0.56
2023-01-18T05:23:25.055Z,-0.61
2023-01-18T05:26:00.458Z,-0.63
2023-01-18T05:28:31.223Z,-0.58
2023-01-18T05:31:01.214Z,-0.59
2023-01-18T05:33:31.225Z,-0.61
2023-01-18T05:36:03.795Z,-0.61
2023-01-18T05:38:33.971Z,-0.61
2023-01-18T05:41:04.054Z,-0.66
2023-01-18T05:43:35.789Z,-0.68
2023-01-18T05:46:06.317Z,-0.71
2023-01-18T05:48:36.499Z,-0.79
2023-01-18T05:51:13.927Z,-0.85
2023-01-18T05:53:44.011Z,-0.89
2023-01-18T05:56:14.101Z,-0.92
2023-01-18T05:58:44.160Z,-0.91
2023-01-18T06:01:14.230Z,-0.85
2023-01-18T06:03:44.257Z,-1.01
2023-01-18T06:06:16.855Z,-0.99
2023-01-18T06:08:50.380Z,-0.97
2023-01-18T06:11:20.692Z,-1.01
2023-01-18T06:13:50.885Z,-1.01
2023-01-18T06:16:21.062Z,-1.02
2023-01-18T06:18:51.066Z,-1.09
2023-01-18T06:21:23.735Z,-1.06
2023-01-18T06:23:53.961Z,-0.98
2023-01-18T06:26:24.057Z,-1.00
2023-01-18T06:28:54.042Z,-1.02
2023-01-18T06:31:24.042Z,-1.08
2023-01-18T06:33:54.076Z,-1.00
2023-01-18T06:36:28.126Z,-0.98
2023-01-18T06:38:58.097Z,-1.02
2023-01-18T06:41:29.410Z,-1.00
2023-01-18T06:43:59.637Z,-0.99
2023-01-18T06:46:29.718Z,-0.96
2023-01-18T06:48:59.818Z,-1.00
2023-01-18T06:51:32.568Z,-0.97
2023-01-18T06:54:02.820Z,-0.97
2023-01-18T06:56:32.974Z,-0.99
2023-01-18T06:59:03.314Z,-0.97
2023-01-18T07:01:33.560Z,-0.93
2023-01-18T07:04:03.843Z,-0.94
2023-01-18T07:06:37.722Z,-0.95
2023-01-18T07:09:09.648Z,-0.90
2023-01-18T07:11:43.239Z,-0.84
2023-01-18T07:14:14.339Z,-0.77
2023-01-18T07:16:44.557Z,-0.78
2023-01-18T07:19:16.402Z,-0.76
2023-01-18T07:21:49.819Z,-0.71
2023-01-18T07:24:20.439Z,-0.66
2023-01-18T07:26:50.598Z,-0.73
2023-01-18T07:29:20.599Z,-0.66
2023-01-18T07:31:51.652Z,-0.71
2023-01-18T07:34:21.762Z,-0.73
2023-01-18T07:36:55.135Z,-0.76
2023-01-18T07:39:25.353Z,-0.80
2023-01-18T07:41:55.341Z,-0.81
2023-01-18T07:44:26.694Z,-0.81
2023-01-18T07:46:56.655Z,-0.86
2023-01-18T07:49:27.146Z,-0.81
2023-01-18T07:51:59.814Z,-0.83
2023-01-18T07:54:29.757Z,-0.90
2023-01-18T07:56:59.773Z,-0.91
2023-01-18T07:59:31.042Z,-0.91
2023-01-18T08:02:01.183Z,-0.80
2023-01-18T08:04:31.206Z,-0.78
2023-01-18T08:07:04.102Z,-0.75
2023-01-18T08:09:35.636Z,-0.74
2023-01-18T08:12:08.018Z,-0.68
2023-01-18T08:14:38.362Z,-0.59
2023-01-18T08:17:09.094Z,-0.53
2023-01-18T08:19:39.580Z,-0.53
2023-01-18T08:22:12.508Z,-0.77
2023-01-18T08:24:43.157Z,-0.88
2023-01-18T08:27:13.231Z,-0.78
2023-01-18T08:29:43.251Z,-0.81
2023-01-18T08:32:13.269Z,-0.78
2023-01-18T08:34:43.340Z,-0.80
2023-01-18T08:37:17.009Z,-0.85
2023-01-18T08:39:47.022Z,-0.90
2023-01-18T08:42:17.010Z,-0.77
2023-01-18T08:44:48.527Z,-0.71
2023-01-18T08:47:18.895Z,-0.72
2023-01-18T08:49:49.436Z,-0.79
2023-01-18T08:52:21.967Z,-0.79
2023-01-18T08:54:52.544Z,-0.75
2023-01-18T08:57:23.286Z,-0.72
2023-01-18T08:59:54.797Z,-0.74
2023-01-18T09:02:24.852Z,-0.69
2023-01-18T09:04:55.609Z,-0.74
2023-01-18T09:07:28.260Z,-0.74
2023-01-18T09:09:58.223Z,-0.70
2023-01-18T09:12:28.345Z,-0.69
2023-01-18T09:14:58.514Z,-0.52
2023-01-18T09:17:28.532Z,-0.46
2023-01-18T09:19:59.329Z,-0.58
2023-01-18T09:22:31.870Z,-0.57
2023-01-18T09:25:01.922Z,-0.62
2023-01-18T09:27:31.913Z,-0.55
2023-01-18T09:30:01.966Z,-0.43
2023-01-18T09:32:31.941Z,-0.44
2023-01-18T09:35:02.143Z,-0.31
2023-01-18T09:37:34.752Z,-0.33
2023-01-18T09:40:04.765Z,-0.37
2023-01-18T09:42:44.683Z,-0.26
2023-01-18T09:45:32.245Z,-0.43
2023-01-18T09:48:08.344Z,-0.35
2023-01-18T09:50:44.784Z,-0.28
2023-01-18T09:53:41.073Z,-0.32
2023-01-18T09:56:21.185Z,-0.55
2023-01-18T09:59:11.821Z,-0.54
2023-01-18T10:01:42.278Z,-0.43
2023-01-18T10:04:25.201Z,-0.44
2023-01-18T10:07:02.350Z,-0.37
2023-01-18T10:09:43.233Z,-0.30
2023-01-18T10:12:26.227Z,-0.27
2023-01-18T10:15:02.662Z,-0.28
2023-01-18T10:17:39.974Z,-0.24
2023-01-18T10:20:19.292Z,-0.34
2023-01-18T10:22:58.067Z,-0.28
2023-01-18T10:25:41.834Z,-0.17
2023-01-18T10:28:32.326Z,-0.36
2023-01-18T10:31:25.507Z,-0.41
2023-01-18T10:34:00.394Z,-0.37
2023-01-18T10:36:39.589Z,-0.42
2023-01-18T10:39:31.684Z,-0.30
2023-01-18T10:42:10.141Z,-0.30
2023-01-18T10:44:41.262Z,-0.30
2023-01-18T10:47:12.112Z,-0.40
2023-01-18T10:49:45.084Z,-0.43
2023-01-18T10:52:27.832Z,-0.40
2023-01-18T10:55:01.640Z,-0.23
2023-01-18T10:57:40.429Z,-0.14
2023-01-18T11:00:24.450Z,-0.29
2023-01-18T11:02:58.079Z,-0.31
2023-01-18T11:05:34.838Z,-0.27
2023-01-18T11:08:18.974Z,-0.25
2023-01-18T11:10:49.361Z,-0.24
2023-01-18T11:13:37.610Z,-0.42
2023-01-18T11:16:17.740Z,-0.18
2023-01-18T11:19:06.312Z,-0.40
2023-01-18T11:21:51.602Z,-0.38
2023-01-18T11:24:27.558Z,-0.37
2023-01-18T11:27:02.643Z,-0.37
2023-01-18T11:29:39.697Z,-0.36
2023-01-18T11:32:21.997Z,-0.47
2023-01-18T11:34:56.027Z,-0.51
2023-01-18T11:37:34.849Z,-0.47
2023-01-18T11:40:29.391Z,-0.54
2023-01-18T11:43:05.079Z,-0.46
2023-01-18T11:45:45.646Z,-0.54
2023-01-18T11:48:30.291Z,-0.45
2023-01-18T11:51:09.680Z,-0.24
2023-01-18T11:53:54.307Z,-0.19
2023-01-18T11:56:39.922Z,-0.30
2023-01-18T11:59:18.602Z,-0.15
2023-01-18T12:02:22.792Z,-0.05
2023-01-18T12:05:25.827Z,0.00
2023-01-18T12:08:14.679Z,0.08
2023-01-18T12:11:00.775Z,-0.05
2023-01-18T12:13:42.091Z,0.12
2023-01-18T12:16:23.852Z,0.22
2023-01-18T12:19:33.148Z,0.25
2023-01-18T12:22:35.942Z,0.16
2023-01-18T12:25:24.143Z,0.07
2023-01-18T12:28:08.777Z,0.11
2023-01-18T12:30:55.761Z,0.17
2023-01-18T12:33:46.762Z,0.25
2023-01-18T12:36:39.921Z,0.25
2023-01-18T12:39:29.902Z,0.14
2023-01-18T12:42:07.192Z,0.03
2023-01-18T12:44:55.658Z,0.03
2023-01-18T12:47:40.415Z,0.04
2023-01-18T12:50:26.666Z,-0.01
2023-01-18T12:53:06.771Z,-0.19
2023-01-18T12:55:41.173Z,-0.15
2023-01-18T12:58:22.357Z,-0.02
2023-01-18T13:00:57.354Z,0.07
2023-01-18T13:03:34.449Z,0.02
2023-01-18T13:06:06.137Z,-0.11
2023-01-18T13:08:45.500Z,-0.23
2023-01-18T13:11:22.390Z,-0.30
2023-01-18T13:14:07.128Z,-0.18
2023-01-18T13:16:51.086Z,-0.11
2023-01-18T13:19:29.327Z,-0.18
2023-01-18T13:22:11.843Z,-0.03
2023-01-18T13:25:16.221Z,-0.14
2023-01-18T13:28:01.309Z,0.03
2023-01-18T13:30:35.034Z,0.20
2023-01-18T13:33:17.153Z,0.32
2023-01-18T13:35:57.713Z,0.24
2023-01-18T13:38:41.084Z,0.01
2023-01-18T13:41:17.005Z,0.10
2023-01-18T13:44:07.653Z,0.14
2023-01-18T13:46:39.604Z,0.00
2023-01-18T13:49:38.221Z,-0.09
2023-01-18T13:52:35.628Z,-0.15
2023-01-18T13:55:31.251Z,-0.15
2023-01-18T13:58:04.291Z,-0.14
2023-01-18T14:00:36.814Z,-0.22
2023-01-18T14:03:17.740Z,-0.20
2023-01-18T14:05:50.008Z,-0.24
2023-01-18T14:08:27.702Z,-0.27
2023-01-18T14:11:05.502Z,-0.33
2023-01-18T14:14:08.365Z,-0.21
2023-01-18T14:16:55.228Z,-0.11
2023-01-18T14:19:27.537Z,-0.25
2023-01-18T14:22:20.139Z,-0.26
2023-01-18T14:25:27.363Z,-0.30
2023-01-18T14:28:10.557Z,-0.25
2023-01-18T14:30:48.624Z,-0.30
2023-01-18T14:33:26.548Z,-0.32
2023-01-18T14:36:01.119Z,-0.24
2023-01-18T14:38:32.981Z,-0.10
2023-01-18T14:41:08.608Z,-0.07
2023-01-18T14:43:45.358Z,-0.07
2023-01-18T14:46:25.618Z,-0.03
2023-01-18T14:49:01.738Z,-0.10
2023-01-18T14:51:32.700Z,-0.20
2023-01-18T14:54:05.216Z,-0.25
2023-01-18T14:56:43.625Z,-0.20
2023-01-18T14:59:24.466Z,-0.18
2023-01-18T15:02:00.775Z,-0.12
2023-01-18T15:04:36.145Z,-0.10
2023-01-18T15:07:13.735Z,-0.14
2023-01-18T15:09:45.748Z,-0.08
2023-01-18T15:12:25.332Z,-0.12
2023-01-18T15:14:55.612Z,-0.24
2023-01-18T15:17:29.303Z,-0.19
2023-01-18T15:20:05.063Z,-0.28
2023-01-18T15:22:40.613Z,-0.20
2023-01-18T15:25:22.521Z,-0.28
2023-01-18T15:27:54.878Z,-0.29
2023-01-18T15:30:27.157Z,-0.12
2023-01-18T15:33:02.303Z,-0.16
2023-01-18T15:35:33.502Z,-0.12
2023-01-18T15:38:05.142Z,0.00
2023-01-18T15:40:35.890Z,-0.02
2023-01-18T15:43:11.917Z,-0.14
2023-01-18T15:45:50.965Z,-0.16
2023-01-18T15:48:27.204Z,-0.27
2023-01-18T15:51:06.884Z,-0.26
2023-01-18T15:53:41.497Z,-0.36
2023-01-18T15:56:19.607Z,-0.29
2023-01-18T15:58:55.695Z,-0.32
2023-01-18T16:01:29.452Z,-0.35
2023-01-18T16:04:05.664Z,-0.37
2023-01-18T16:06:40.382Z,-0.25
2023-01-18T16:09:23.192Z,-0.20
2023-01-18T16:11:57.096Z,-0.09
2023-01-18T16:14:36.495Z,-0.17
2023-01-18T16:17:10.168Z,-0.14
2023-01-18T16:19:46.226Z,-0.09
2023-01-18T16:22:24.535Z,0.01
2023-01-18T16:24:59.830Z,0.03
2023-01-18T16:27:34.028Z,-0.06
2023-01-18T16:30:20.272Z,-0.07
2023-01-18T16:32:51.022Z,-0.08
2023-01-18T16:35:26.010Z,-0.13
2023-01-18T16:37:57.992Z,-0.27
2023-01-18T16:40:28.236Z,-0.16
2023-01-18T16:43:02.563Z,-0.25
2023-01-18T16:45:36.589Z,-0.25
2023-01-18T16:48:08.994Z,-0.33
2023-01-18T16:50:41.717Z,-0.39
2023-01-18T16:53:11.845Z,-0.47
2023-01-18T16:55:44.018Z,-0.45
2023-01-18T16:58:16.577Z,-0.39
2023-01-18T17:00:57.546Z,-0.35
2023-01-18T17:03:28.586Z,-0.47
2023-01-18T17:06:01.852Z,-0.41
2023-01-18T17:08:32.517Z,-0.40
2023-01-18T17:11:02.540Z,-0.43
2023-01-18T17:13:32.515Z,-0.39
2023-01-18T17:16:02.631Z,-0.40
2023-01-18T17:18:32.589Z,-0.47
2023-01-18T17:21:05.210Z,-0.37
2023-01-18T17:23:35.183Z,-0.37
2023-01-18T17:26:05.449Z,-0.35
2023-01-18T17:28:35.478Z,-0.41
2023-01-18T17:31:05.508Z,-0.40
2023-01-18T17:33:38.593Z,-0.47
2023-01-18T17:36:12.055Z,-0.46
2023-01-18T17:38:42.042Z,-0.67
2023-01-18T17:41:26.768Z,-0.59
2023-01-18T17:43:58.083Z,-0.61
2023-01-18T17:46:28.189Z,-0.61
2023-01-18T17:48:58.243Z,-0.63
2023-01-18T17:51:32.175Z,-0.63
2023-01-18T17:54:03.678Z,-0.61
2023-01-18T17:56:36.711Z,-0.73
2023-01-18T17:59:10.653Z,-0.69
2023-01-18T18:01:40.854Z,-0.62
2023-01-18T18:04:10.981Z,-0.66
2023-01-18T18:06:53.750Z,-0.75
2023-01-18T18:09:24.672Z,-0.74
2023-01-18T18:11:55.434Z,-0.85
2023-01-18T18:14:25.650Z,-0.81
2023-01-18T18:16:55.761Z,-0.86
2023-01-18T18:19:25.904Z,-0.91
2023-01-18T18:21:59.158Z,-0.97
2023-01-18T18:24:29.704Z,-1.05
2023-01-18T18:27:01.497Z,-1.11
2023-01-18T18:29:32.191Z,-1.17
2023-01-18T18:32:02.232Z,-1.22
2023-01-18T18:34:32.304Z,-1.26
2023-01-18T18:37:06.091Z,-1.40
2023-01-18T18:39:36.712Z,-1.39
2023-01-18T18:42:07.016Z,-1.40
2023-01-18T18:44:36.969Z,-1.44
2023-01-18T18:47:10.093Z,-1.53
2023-01-18T18:49:40.495Z,-1.57
2023-01-18T18:52:13.135Z,-1.55
2023-01-18T18:54:43.141Z,-1.51
2023-01-18T18:57:13.131Z,-1.52
2023-01-18T18:59:43.109Z,-1.54
2023-01-18T19:02:16.452Z,-1.48
2023-01-18T19:04:46.466Z,-1.58
2023-01-18T19:07:19.715Z,-1.54
2023-01-18T19:09:49.714Z,-1.50
2023-01-18T19:12:19.760Z,-1.47
2023-01-18T19:14:49.857Z,-1.54
2023-01-18T19:17:29.813Z,-1.61
2023-01-18T19:20:01.219Z,-1.51
2023-01-18T19:22:33.899Z,-1.56
2023-01-18T19:25:04.234Z,-1.59
2023-01-18T19:27:34.342Z,-1.67
2023-01-18T19:30:05.453Z,-1.70
2023-01-18T19:32:35.571Z,-1.77
2023-01-18T19:35:05.734Z,-1.80
2023-01-18T19:37:38.715Z,-1.85
2023-01-18T19:40:11.790Z,-1.91
2023-01-18T19:42:44.450Z,-1.91
2023-01-18T19:45:23.144Z,-1.98
2023-01-18T19:47:58.373Z,-2.07
2023-01-18T19:50:31.830Z,-2.14
2023-01-18T19:53:04.609Z,-2.20
2023-01-18T19:55:36.497Z,-2.40
2023-01-18T19:58:06.642Z,-2.42
2023-01-18T20:00:37.072Z,-2.46
2023-01-18T20:03:07.263Z,-2.49
2023-01-18T20:05:37.267Z,-2.52
2023-01-18T20:08:09.942Z,-2.54
2023-01-18T20:10:40.081Z,-2.64
2023-01-18T20:13:10.106Z,-2.72
2023-01-18T20:15:45.448Z,-2.77
2023-01-18T20:18:15.494Z,-2.75
2023-01-18T20:20:45.614Z,-2.78
2023-01-18T20:23:18.198Z,-2.81
2023-01-18T20:25:48.208Z,-2.92
2023-01-18T20:28:18.213Z,-3.04
2023-01-18T20:30:51.853Z,-3.10
2023-01-18T20:33:22.226Z,-3.08
2023-01-18T20:35:52.242Z,-3.15
2023-01-18T20:38:24.858Z,-3.27
2023-01-18T20:40:54.915Z,-3.22
2023-01-18T20:43:24.915Z,-3.25
2023-01-18T20:46:03.367Z,-3.18
2023-01-18T20:48:35.103Z,-3.23
2023-01-18T20:51:07.516Z,-3.37
2023-01-18T20:53:40.649Z,-3.37
2023-01-18T20:56:28.414Z,-3.24
2023-01-18T20:58:59.641Z,-3.17
2023-01-18T21:01:32.722Z,-3.17
2023-01-18T21:04:05.507Z,-3.18
2023-01-18T21:06:36.199Z,-3.10
2023-01-18T21:09:08.797Z,-2.95
2023-01-18T21:11:38.903Z,-2.86
2023-01-18T21:14:08.918Z,-2.85
2023-01-18T21:16:38.917Z,-2.79
2023-01-18T21:19:10.117Z,-2.73
2023-01-18T21:21:40.193Z,-2.60
2023-01-18T21:24:13.607Z,-2.51
2023-01-18T21:26:43.589Z,-2.47
2023-01-18T21:29:13.610Z,-2.42
2023-01-18T21:31:43.690Z,-2.36
2023-01-18T21:34:14.319Z,-2.30
2023-01-18T21:36:44.344Z,-2.25
2023-01-18T21:39:18.505Z,-2.27
2023-01-18T21:42:01.262Z,-2.28
2023-01-18T21:44:43.826Z,-2.36
2023-01-18T21:47:13.798Z,-2.39
2023-01-18T21:50:17.804Z,-2.40
2023-01-18T21:53:02.665Z,-2.61
2023-01-18T21:55:35.697Z,-2.72
2023-01-18T21:58:18.161Z,-2.76
2023-01-18T22:00:48.237Z,-2.80
2023-01-18T22:03:18.640Z,-2.94
2023-01-18T22:05:46.095Z,-3.02
2023-01-18T22:08:16.107Z,-3.02
2023-01-18T22:10:51.492Z,-3.01
2023-01-18T22:13:21.565Z,-3.09
2023-01-18T22:15:51.501Z,-3.11
2023-01-18T22:18:21.465Z,-3.02
2023-01-18T22:20:59.294Z,-3.06
2023-01-18T22:23:29.437Z,-3.12
2023-01-18T22:26:02.066Z,-3.13
2023-01-18T22:28:32.130Z,-3.17
2023-01-18T22:31:06.594Z,-3.17
2023-01-18T22:33:36.850Z,-3.18
2023-01-18T22:36:07.973Z,-3.25
2023-01-18T22:38:38.591Z,-3.39
2023-01-18T22:41:14.378Z,-3.45
2023-01-18T22:43:45.545Z,-3.66
2023-01-18T22:46:18.745Z,-3.72
2023-01-18T22:48:49.774Z,-3.67
2023-01-18T22:51:24.040Z,-3.69
2023-01-18T22:53:56.348Z,-3.74
2023-01-18T22:56:29.037Z,-3.82
2023-01-18T22:59:00.094Z,-3.76
2023-01-18T23:01:33.572Z,-3.62
2023-01-18T23:04:06.425Z,-3.52
2023-01-18T23:06:42.463Z,-3.52
2023-01-18T23:09:13.246Z,-3.51
2023-01-18T23:11:47.649Z,-3.45
2023-01-18T23:14:30.461Z,-3.62
2023-01-18T23:17:13.111Z,-3.60
2023-01-18T23:19:43.147Z,-3.51
2023-01-18T23:22:13.176Z,-3.50
2023-01-18T23:24:43.437Z,-3.52
2023-01-18T23:27:16.001Z,-3.59
2023-01-18T23:29:46.740Z,-3.74
2023-01-18T23:32:16.701Z,-3.75
2023-01-18T23:34:47.901Z,-3.82
2023-01-18T23:37:17.871Z,-3.93
2023-01-18T23:40:00.377Z,-4.06
2023-01-18T23:42:45.492Z,-4.11
2023-01-18T23:45:29.133Z,-4.14
2023-01-18T23:48:12.337Z,-4.18
2023-01-18T23:50:54.834Z,-3.99
2023-01-18T23:53:37.386Z,-3.79
2023-01-18T23:56:07.649Z,-3.77
2023-01-18T23:58:40.875Z,-3.80
